Roanoke, VA (24014)

10:51 AM EDT on August 04, 2015 (GMT -0400)
Edgehill Est. - S Roanoke 1500 ft. | | Change Station
CLOSE
Current Station
Personal Weather Station
Location: Roanoke, VA
Elevation: 1440 ft
Nearby Weather Stations

Elev 1440 ft 37.23 °N, 79.96 °W | Updated 12 seconds ago

Clear
Clear
80.4 °F
Feels Like 82 °F
N
4.6
Wind Variable Wind from ESE
Gusts 4.6 mph

Today
High -- | Low -- °F
--% Chance of Precip.
Yesterday
High -- | Low -- °F
Precip. -- in
6:26 AM 8:24 PM
Waning Gibbous, 77% visible
Pressure 29.99 in
Visibility 10.0 miles
Clouds Few 25000 ft
Heat Index 82 °F
Dew Point 65 °F
Humidity 60%
Rainfall 0.00 in
Snow Depth Not available.
UV 5 out of 12
Pollen 6.90 out of 12
Air Quality Not available.
Flu Activity Not available.
METAR KROA 041354Z 24004KT 10SM FEW250 27/17 A3003 RMK AO2 SLP153 T02720172

More Conditions Fewer Conditions

Pressure 29.99 in
Visibility 10.0 miles
Clouds Few 25000 ft
Heat Index 82 °F
Dew Point 65 °F
Humidity 60%
Rainfall 0.00 in
Snow Depth Not available.
UV 5 out of 12
Pollen 6.90 out of 12
Air Quality Not available.
Flu Activity Not available.
METAR KROA 041354Z 24004KT 10SM FEW250 27/17 A3003 RMK AO2 SLP153 T02720172

More Conditions Fewer Conditions

10-Day Weather Forecast

×

Almanac

Astronomy

Aug. 04, 2015 Rise Set
Actual Time
Civil Twilight
Nautical Twilight
Astronomical Twilight
Moon
Length of Visible Light
Length of Day
Tomorrow will be .
, % of the Moon is Illuminated

Today's Extremes

State Highs State Lows

Community

WunderPhotos

Upload Photos

1,843,921 photos uploaded!

WunderBlogs® & News

Nearby

Air Quality

  Air Quality AQ Index Pollutant
Not available.

Snow Depth

Station Depth Elevation

Earthquake Activity

City Distance Mag. Time & Date
Minimum magnitude displayed is 2.5.

Coastal Water Temperatures

Place Temperature

Stations

Nearby Weather Stations

Station Location Temp. Windchill Dew Point Humidity Wind Precip. Elev Updated Type